Time;durP1;ratioP1;P1;durP2;ratioP2;P2;SDS_P1;SDS_P2;PMS_P1;PMS_P2;Temp;Humidity;BMP_temperature;BMP_pressure;BME280_temperature;BME280_humidity;BME280_pressure;Samples;Min_cycle;Max_cycle;Signal;HPM_P1;HPM_P2
2021/12/31 00:02:19;;;;;;;23.77;12.53;;;;;;;14.49;nan;102208.63;6129943;23;20464;-86
2021/12/31 00:04:57;;;;;;;26.07;13.20;;;;;;;14.47;nan;102201.59;6112879;23;20445;-87
2021/12/31 00:07:27;;;;;;;22.40;11.47;;;;;;;14.48;nan;102195.06;6107327;23;20413;-87
2021/12/31 00:09:59;;;;;;;32.20;14.27;;;;;;;14.49;nan;102200.38;6130502;23;20480;-87
2021/12/31 00:12:28;;;;;;;32.70;14.60;;;;;;;14.50;nan;102201.22;6154924;23;20405;-86
2021/12/31 00:14:58;;;;;;;30.70;13.43;;;;;;;14.48;nan;102198.66;6106812;23;20437;-87
2021/12/31 00:17:26;;;;;;;27.03;13.43;;;;;;;14.49;nan;102194.00;6130253;23;20500;-87
2021/12/31 00:20:03;;;;;;;26.93;12.47;;;;;;;14.40;nan;102179.47;6106541;23;20420;-87
2021/12/31 00:25:27;;;;;;;26.83;12.60;;;;;;;14.51;nan;102184.53;5952740;24;20458;-86
2021/12/31 00:27:56;;;;;;;29.50;14.80;;;;;;;14.50;nan;102188.31;5908037;24;20480;-87
2021/12/31 00:30:24;;;;;;;30.60;16.17;;;;;;;14.51;nan;102183.69;5952748;24;20490;-87
2021/12/31 00:32:53;;;;;;;22.13;12.63;;;;;;;14.50;nan;102184.72;5908066;24;21071;-87
2021/12/31 00:35:24;;;;;;;24.17;12.50;;;;;;;14.48;nan;102182.16;5930267;24;20416;-87
2021/12/31 00:37:54;;;;;;;21.67;11.40;;;;;;;14.44;nan;102167.03;5930750;24;20490;-87
2021/12/31 00:40:22;;;;;;;24.03;11.90;;;;;;;14.50;nan;102177.31;5952986;24;20496;-86
2021/12/31 00:42:50;;;;;;;26.07;11.80;;;;;;;14.52;nan;102172.50;5950910;23;20409;-86
2021/12/31 00:45:21;;;;;;;21.73;12.03;;;;;;;14.45;nan;102154.16;6065552;23;20522;-86
2021/12/31 00:47:49;;;;;;;26.50;11.10;;;;;;;14.48;nan;102157.38;6042170;23;21007;-87
2021/12/31 00:50:17;;;;;;;30.20;12.50;;;;;;;14.52;nan;102166.13;6065378;23;20416;-86
2021/12/31 00:52:45;;;;;;;26.23;11.43;;;;;;;14.55;nan;102168.53;6041810;23;20416;-86
2021/12/31 00:55:13;;;;;;;26.83;11.50;;;;;;;14.51;nan;102159.78;6019737;23;20548;-85
2021/12/31 00:57:43;;;;;;;27.13;11.80;;;;;;;14.55;nan;102160.28;6013857;23;20492;-86
2021/12/31 01:00:15;;;;;;;24.17;11.93;;;;;;;14.59;nan;102166.25;6036495;23;20496;-86
2021/12/31 01:02:46;;;;;;;26.90;11.63;;;;;;;14.58;nan;102159.03;6053137;23;20414;-86
2021/12/31 01:05:15;;;;;;;25.03;11.50;;;;;;;14.55;nan;102148.41;6125567;23;20438;-86
2021/12/31 01:07:45;;;;;;;31.77;13.20;;;;;;;14.61;nan;102158.69;6077124;23;20410;-86
2021/12/31 01:10:16;;;;;;;28.20;12.67;;;;;;;14.59;nan;102145.09;6124681;23;20494;-86
2021/12/31 01:12:45;;;;;;;28.80;13.13;;;;;;;14.60;nan;102151.47;6100821;23;20485;-86
2021/12/31 01:15:21;;;;;;;29.27;12.30;;;;;;;14.54;nan;102142.06;6099972;23;20936;-85
2021/12/31 01:20:23;;;;;;;23.70;11.30;;;;;;;14.60;nan;102152.31;6079568;23;20410;-86
2021/12/31 01:22:53;;;;;;;27.47;10.07;;;;;;;14.62;nan;102139.22;6077551;23;20494;-85
2021/12/31 01:25:21;;;;;;;21.90;10.70;;;;;;;14.60;nan;102144.06;6100937;23;20823;-87
2021/12/31 01:27:49;;;;;;;29.83;13.50;;;;;;;14.61;nan;102136.66;6100171;23;20485;-86
2021/12/31 01:30:17;;;;;;;27.67;14.17;;;;;;;14.61;nan;102131.16;6100071;23;20405;-86
2021/12/31 01:32:49;;;;;;;24.10;12.57;;;;;;;14.62;nan;102138.38;6078531;23;20486;-86
2021/12/31 01:35:18;;;;;;;26.87;13.20;;;;;;;14.59;nan;102134.09;6125548;23;20742;-86
2021/12/31 01:37:47;;;;;;;27.67;12.20;;;;;;;14.59;nan;102128.59;6125207;23;20538;-86
2021/12/31 01:40:15;;;;;;;24.23;12.40;;;;;;;14.61;nan;102131.16;6076640;23;20410;-86
2021/12/31 01:42:43;;;;;;;25.27;15.23;;;;;;;14.62;nan;102132.88;6100278;23;20795;-86
2021/12/31 01:45:17;;;;;;;25.10;12.63;;;;;;;14.62;nan;102132.88;6125978;23;20550;-86
2021/12/31 01:47:58;;;;;;;19.67;11.30;;;;;;;14.61;nan;102136.66;6100194;23;20413;-86
2021/12/31 01:50:30;;;;;;;19.47;12.17;;;;;;;14.63;nan;102140.06;6124435;23;20414;-86
2021/12/31 01:52:58;;;;;;;21.13;10.90;;;;;;;14.61;nan;102139.41;6076912;23;20820;-86
2021/12/31 01:55:29;;;;;;;27.50;11.50;;;;;;;14.56;nan;102139.13;6125551;23;20441;-86
2021/12/31 01:57:58;;;;;;;17.53;10.50;;;;;;;14.64;nan;102152.78;6128896;23;20413;-86
2021/12/31 02:00:26;;;;;;;23.83;10.87;;;;;;;14.57;nan;102135.31;6105443;23;20722;-86
2021/12/31 02:02:55;;;;;;;22.90;9.97;;;;;;;14.64;nan;102144.53;6154208;23;20751;-86
2021/12/31 02:05:24;;;;;;;23.67;13.27;;;;;;;14.63;nan;102140.06;6129021;23;20417;-86
2021/12/31 02:07:52;;;;;;;21.63;12.47;;;;;;;14.67;nan;102150.50;6154997;23;20805;-86
2021/12/31 02:10:23;;;;;;;22.57;11.23;;;;;;;14.67;nan;102147.75;6129460;23;20405;-88
2021/12/31 02:12:51;;;;;;;30.37;14.23;;;;;;;14.68;nan;102148.63;6129520;23;20492;-86
2021/12/31 02:15:20;;;;;;;57.87;23.07;;;;;;;14.66;nan;102146.06;6129888;23;20500;-86
2021/12/31 02:17:48;;;;;;;47.27;22.80;;;;;;;14.68;nan;102152.22;6129734;23;20657;-86
2021/12/31 02:20:18;;;;;;;52.77;23.20;;;;;;;14.66;nan;102150.69;6155078;23;20416;-86
2021/12/31 02:23:05;;;;;;;32.60;15.53;;;;;;;14.58;nan;102142.53;6129021;23;20405;-86
2021/12/31 02:25:37;;;;;;;143.13;49.77;;;;;;;14.61;nan;102137.53;6112837;23;20503;-86
2021/12/31 02:28:06;;;;;;;168.87;52.47;;;;;;;14.67;nan;102152.41;6106577;23;20544;-86
2021/12/31 02:30:35;;;;;;;262.33;73.27;;;;;;;14.54;nan;102136.53;6153865;23;20491;-86
2021/12/31 02:33:03;;;;;;;68.93;27.60;;;;;;;14.64;nan;102161.03;6105102;23;20409;-86
2021/12/31 02:35:32;;;;;;;47.13;20.37;;;;;;;14.59;nan;102139.59;6129853;23;20477;-86
2021/12/31 02:38:03;;;;;;;30.63;17.70;;;;;;;14.61;nan;102153.19;6129676;23;20972;-87
2021/12/31 02:40:32;;;;;;;26.97;16.60;;;;;;;14.62;nan;102155.75;6105759;23;20464;-86
2021/12/31 02:43:02;;;;;;;27.47;14.93;;;;;;;14.63;nan;102156.56;6129872;23;20405;-86
2021/12/31 02:45:36;;;;;;;32.53;13.60;;;;;;;14.59;nan;102147.00;6129637;23;20844;-86
2021/12/31 02:48:05;;;;;;;22.13;12.63;;;;;;;14.60;nan;102156.97;6107698;23;20488;-86
2021/12/31 02:50:39;;;;;;;29.40;14.00;;;;;;;14.58;nan;102153.53;6081935;23;20413;-86
2021/12/31 02:53:15;;;;;;;29.00;13.30;;;;;;;14.55;nan;102151.16;6082628;23;20484;-86
2021/12/31 02:55:44;;;;;;;24.97;13.90;;;;;;;14.54;nan;102158.56;6125939;23;20434;-86
2021/12/31 02:58:13;;;;;;;29.10;14.60;;;;;;;14.54;nan;102163.19;6102133;23;20795;-86
2021/12/31 03:00:42;;;;;;;25.67;13.20;;;;;;;14.51;nan;102150.66;6102122;23;20409;-86
2021/12/31 03:03:13;;;;;;;27.97;14.37;;;;;;;14.53;nan;102145.84;6078802;23;20398;-87
2021/12/31 03:05:42;;;;;;;27.67;16.43;;;;;;;14.45;nan;102138.50;6125867;23;20909;-86
2021/12/31 03:08:12;;;;;;;35.80;14.37;;;;;;;14.48;nan;102154.63;6101964;23;20483;-86
2021/12/31 03:10:40;;;;;;;27.87;15.00;;;;;;;14.52;nan;102160.63;6102081;23;20466;-85
2021/12/31 03:13:09;;;;;;;38.00;19.30;;;;;;;14.48;nan;102146.38;6101453;23;20413;-85
2021/12/31 03:15:38;;;;;;;30.97;15.23;;;;;;;14.44;nan;102131.28;6101986;23;20414;-86
2021/12/31 03:18:07;;;;;;;28.17;14.37;;;;;;;14.51;nan;102148.78;6101291;23;20407;-85
2021/12/31 03:20:41;;;;;;;25.83;13.50;;;;;;;14.47;nan;102139.16;6101207;23;20493;-86
2021/12/31 03:23:11;;;;;;;30.67;14.70;;;;;;;14.51;nan;102145.16;6101702;23;20437;-86
2021/12/31 03:25:39;;;;;;;27.80;13.33;;;;;;;14.46;nan;102139.34;6101213;23;20861;-86
2021/12/31 03:28:08;;;;;;;26.70;13.43;;;;;;;14.47;nan;102135.56;6126175;23;20522;-87
2021/12/31 03:30:36;;;;;;;27.00;13.17;;;;;;;14.48;nan;102146.38;6126963;23;20581;-87
2021/12/31 03:33:04;;;;;;;32.30;15.20;;;;;;;14.46;nan;102136.59;6101068;23;20410;-86
2021/12/31 03:35:32;;;;;;;30.97;15.30;;;;;;;14.50;nan;102146.19;6101011;23;20468;-86
2021/12/31 03:38:00;;;;;;;27.20;14.93;;;;;;;14.49;nan;102139.84;6127033;23;20406;-86
2021/12/31 03:40:29;;;;;;;28.13;14.20;;;;;;;14.54;nan;102146.69;6102081;23;20488;-88
2021/12/31 03:42:57;;;;;;;26.50;15.30;;;;;;;14.54;nan;102147.56;5986483;23;20492;-86
2021/12/31 03:45:27;;;;;;;28.17;15.63;;;;;;;14.55;nan;102153.91;6009650;23;20493;-85
2021/12/31 03:47:55;;;;;;;25.40;14.63;;;;;;;14.48;nan;102137.28;6032645;23;20520;-85
2021/12/31 03:50:24;;;;;;;24.23;13.73;;;;;;;14.55;nan;102148.41;5986344;23;20421;-86
2021/12/31 03:52:53;;;;;;;27.53;13.70;;;;;;;14.58;nan;102151.66;6031619;23;20418;-87
2021/12/31 03:55:22;;;;;;;23.67;13.90;;;;;;;14.56;nan;102139.13;5985952;23;20452;-87
2021/12/31 03:57:52;;;;;;;24.10;14.10;;;;;;;14.48;nan;102132.63;6036882;23;20408;-89
2021/12/31 04:00:22;;;;;;;23.20;14.10;;;;;;;14.55;nan;102140.16;6052902;23;20779;-87
2021/12/31 04:02:50;;;;;;;27.13;13.73;;;;;;;14.56;nan;102147.38;6101584;23;21100;-88
2021/12/31 04:05:18;;;;;;;24.00;13.33;;;;;;;14.54;nan;102149.44;6077379;23;20890;-88
2021/12/31 04:07:48;;;;;;;24.97;13.30;;;;;;;14.51;nan;102148.78;6077777;23;20771;-88
2021/12/31 04:10:16;;;;;;;27.17;12.80;;;;;;;14.48;nan;102146.38;6102104;23;20407;-87
2021/12/31 04:12:44;;;;;;;23.47;12.37;;;;;;;14.47;nan;102147.44;6101470;23;20715;-88
2021/12/31 04:15:13;;;;;;;25.53;14.73;;;;;;;14.44;nan;102150.53;6127067;23;20489;-87
2021/12/31 04:17:44;;;;;;;31.50;14.70;;;;;;;14.43;nan;102140.56;6077512;23;20402;-88
2021/12/31 04:20:19;;;;;;;36.47;14.80;;;;;;;14.42;nan;102147.16;6077156;23;20414;-88
2021/12/31 04:22:53;;;;;;;32.50;15.23;;;;;;;14.41;nan;102150.09;6079065;23;20409;-88
2021/12/31 04:25:23;;;;;;;27.30;15.10;;;;;;;14.40;nan;102154.72;5987304;23;20421;-88
2021/12/31 04:27:51;;;;;;;25.50;13.47;;;;;;;14.38;nan;102155.91;5985732;23;20530;-88
2021/12/31 04:30:19;;;;;;;25.60;13.77;;;;;;;14.38;nan;102153.16;5963039;23;20413;-87
2021/12/31 04:32:48;;;;;;;29.97;14.87;;;;;;;14.38;nan;102142.16;5986143;23;20869;-87
2021/12/31 04:35:18;;;;;;;26.83;13.67;;;;;;;14.36;nan;102139.59;5985999;23;20402;-88
2021/12/31 04:37:48;;;;;;;27.90;13.97;;;;;;;14.38;nan;102143.03;6008985;23;20421;-86
2021/12/31 04:40:16;;;;;;;29.83;15.67;;;;;;;14.38;nan;102136.66;5962520;23;21077;-86
2021/12/31 04:42:44;;;;;;;32.93;15.60;;;;;;;14.37;nan;102129.44;6005962;23;20477;-87
2021/12/31 04:45:16;;;;;;;29.70;16.60;;;;;;;14.37;nan;102137.69;6077578;23;21068;-88
2021/12/31 04:47:45;;;;;;;38.33;18.07;;;;;;;14.36;nan;102138.75;6126916;23;20517;-88
2021/12/31 04:50:17;;;;;;;43.10;21.30;;;;;;;14.40;nan;102135.47;6125078;23;20938;-88
2021/12/31 04:52:45;;;;;;;37.90;17.70;;;;;;;14.39;nan;102130.13;6077811;23;20489;-88
2021/12/31 04:55:12;;;;;;;30.00;16.13;;;;;;;14.41;nan;102134.44;6101012;23;20513;-86
2021/12/31 04:57:42;;;;;;;30.60;16.73;;;;;;;14.38;nan;102132.00;6101489;23;20503;-88
2021/12/31 05:00:14;;;;;;;37.20;18.17;;;;;;;14.39;nan;102133.72;6101137;23;20466;-89
2021/12/31 05:02:42;;;;;;;33.87;17.67;;;;;;;14.38;nan;102129.25;6101034;23;20493;-90
2021/12/31 05:05:11;;;;;;;43.43;18.80;;;;;;;14.38;nan;102143.03;6076783;23;20414;-89
2021/12/31 05:07:41;;;;;;;33.17;16.53;;;;;;;14.36;nan;102133.22;6101268;23;20521;-88
2021/12/31 05:10:10;;;;;;;34.50;16.17;;;;;;;14.40;nan;102132.72;6099547;23;20411;-88
2021/12/31 05:12:55;;;;;;;35.43;16.43;;;;;;;14.39;nan;102147.47;6125397;23;20734;-90
2021/12/31 05:15:27;;;;;;;33.77;17.50;;;;;;;14.37;nan;102135.81;6103114;23;20469;-90
2021/12/31 05:17:59;;;;;;;40.17;17.80;;;;;;;14.40;nan;102140.09;6101983;23;20405;-90
2021/12/31 05:20:29;;;;;;;36.57;15.53;;;;;;;14.40;nan;102138.22;6077451;23;20375;-88
2021/12/31 05:23:06;;;;;;;38.20;17.40;;;;;;;14.42;nan;102133.41;6125009;23;20494;-89
2021/12/31 05:25:35;;;;;;;36.90;18.13;;;;;;;14.35;nan;102132.38;6077407;23;20493;-89
2021/12/31 05:28:05;;;;;;;35.83;15.57;;;;;;;14.39;nan;102133.72;6100832;23;20445;-89
2021/12/31 05:30:34;;;;;;;26.57;14.40;;;;;;;14.36;nan;102142.34;6099484;23;21000;-88
2021/12/31 05:33:02;;;;;;;30.73;13.23;;;;;;;14.31;nan;102136.53;6124750;23;20409;-88
2021/12/31 05:35:31;;;;;;;25.10;13.57;;;;;;;14.29;nan;102149.59;6101028;23;20433;-88
2021/12/31 05:37:59;;;;;;;28.73;13.70;;;;;;;14.24;nan;102146.53;6100591;23;20422;-88
2021/12/31 05:40:27;;;;;;;24.67;12.40;;;;;;;14.19;nan;102143.50;6099653;23;20417;-89
2021/12/31 05:43:01;;;;;;;29.17;12.53;;;;;;;14.14;nan;102140.44;6101330;23;20407;-88
2021/12/31 05:45:29;;;;;;;19.50;10.17;;;;;;;14.09;nan;102142.88;6100735;23;20716;-88
2021/12/31 05:48:20;;;;;;;18.53;9.87;;;;;;;13.99;nan;102134.03;6065963;23;20444;-88
2021/12/31 05:50:55;;;;;;;22.57;10.50;;;;;;;13.99;nan;102150.53;6124794;23;20501;-88
2021/12/31 05:53:25;;;;;;;18.27;10.53;;;;;;;13.92;nan;102146.78;6076850;23;20410;-88
2021/12/31 05:55:54;;;;;;;17.10;9.77;;;;;;;13.86;nan;102153.84;6130469;23;20472;-88
2021/12/31 05:58:22;;;;;;;18.60;9.70;;;;;;;13.81;nan;102146.16;6106025;23;20540;-88
2021/12/31 06:00:50;;;;;;;20.50;10.33;;;;;;;13.66;nan;102136.97;6154929;23;20450;-87
2021/12/31 06:03:19;;;;;;;22.20;10.00;;;;;;;13.64;nan;102150.03;6130842;23;20560;-89
2021/12/31 06:05:50;;;;;;;20.53;11.00;;;;;;;13.62;nan;102162.25;6129129;23;20409;-88
2021/12/31 06:08:21;;;;;;;19.03;10.20;;;;;;;13.56;nan;102150.06;6154359;23;20504;-88
2021/12/31 06:10:56;;;;;;;20.17;9.53;;;;;;;13.55;nan;102159.34;6105633;23;20469;-87
2021/12/31 06:13:27;;;;;;;16.40;10.03;;;;;;;13.49;nan;102152.66;6129838;23;20480;-88
2021/12/31 06:15:58;;;;;;;17.57;8.43;;;;;;;13.46;nan;102161.28;6155484;23;20488;-88
2021/12/31 06:18:27;;;;;;;17.40;8.70;;;;;;;13.43;nan;102161.66;6106528;23;20409;-89
2021/12/31 06:20:55;;;;;;;12.70;8.30;;;;;;;13.37;nan;102156.00;6105598;23;20413;-88
2021/12/31 06:23:26;;;;;;;23.67;9.10;;;;;;;13.35;nan;102153.41;6106068;23;20401;-88
2021/12/31 06:25:54;;;;;;;15.67;8.80;;;;;;;13.29;nan;102156.88;6129918;23;20444;-89
2021/12/31 06:28:25;;;;;;;16.67;9.03;;;;;;;13.26;nan;102156.41;6105470;23;20520;-89
2021/12/31 06:30:54;;;;;;;20.03;8.93;;;;;;;13.12;nan;102153.28;6131673;23;20409;-88
2021/12/31 06:33:25;;;;;;;16.30;8.87;;;;;;;13.16;nan;102173.06;6132277;23;20919;-89
2021/12/31 06:35:54;;;;;;;17.43;8.93;;;;;;;13.13;nan;102173.38;6107069;23;20488;-88
2021/12/31 06:38:29;;;;;;;15.80;8.13;;;;;;;13.10;nan;102185.53;6132177;23;20468;-89
2021/12/31 06:40:59;;;;;;;13.33;8.50;;;;;;;13.05;nan;102176.16;6155849;23;20776;-88
2021/12/31 06:43:38;;;;;;;12.70;7.20;;;;;;;13.04;nan;102175.28;6131683;23;20416;-88
2021/12/31 06:46:06;;;;;;;20.17;8.40;;;;;;;12.94;nan;102171.88;6130944;23;20737;-87
2021/12/31 06:48:34;;;;;;;16.83;7.87;;;;;;;12.92;nan;102178.56;6155897;23;20962;-88
2021/12/31 06:51:03;;;;;;;14.87;7.13;;;;;;;12.85;nan;102178.41;6131019;23;20416;-89
2021/12/31 06:53:30;;;;;;;16.67;7.53;;;;;;;12.88;nan;102180.81;6131443;23;20405;-87
2021/12/31 06:55:58;;;;;;;13.80;7.50;;;;;;;12.88;nan;102186.31;6107685;23;20938;-88
2021/12/31 06:58:27;;;;;;;14.57;7.40;;;;;;;12.84;nan;102192.31;6156364;23;20480;-89
2021/12/31 07:00:56;;;;;;;13.90;6.93;;;;;;;12.73;nan;102179.78;6107397;23;20863;-89
2021/12/31 07:03:32;;;;;;;15.23;7.60;;;;;;;12.74;nan;102190.59;6131505;23;20748;-89
2021/12/31 07:06:01;;;;;;;15.20;8.43;;;;;;;12.72;nan;102184.41;6107311;23;20413;-89
2021/12/31 07:08:29;;;;;;;12.20;7.03;;;;;;;12.66;nan;102187.00;6132258;23;20736;-88
2021/12/31 07:10:59;;;;;;;11.77;6.13;;;;;;;12.54;nan;102181.00;6107643;23;20794;-89
2021/12/31 07:13:40;;;;;;;15.70;7.40;;;;;;;12.60;nan;102198.66;6107460;23;20540;-90
2021/12/31 07:16:09;;;;;;;16.10;10.13;;;;;;;12.51;nan;102191.47;6132017;23;20491;-89
2021/12/31 07:18:38;;;;;;;17.33;9.20;;;;;;;12.47;nan;102187.34;6131682;23;20409;-89
2021/12/31 07:21:08;;;;;;;15.20;7.33;;;;;;;12.33;nan;102175.16;6155894;23;20892;-90
2021/12/31 07:23:46;;;;;;;14.53;8.30;;;;;;;12.36;nan;102183.91;6156314;23;20412;-90
2021/12/31 07:26:26;;;;;;;9.43;7.17;;;;;;;12.38;nan;102200.19;6107434;23;20955;-89
2021/12/31 07:28:54;;;;;;;14.40;6.37;;;;;;;12.27;nan;102192.28;6107273;23;20509;-90
2021/12/31 07:31:26;;;;;;;10.60;6.37;;;;;;;12.22;nan;102194.69;6155167;23;20536;-89
2021/12/31 07:33:55;;;;;;;12.33;6.07;;;;;;;12.25;nan;102199.84;6131757;23;20394;-89
2021/12/31 07:36:27;;;;;;;10.87;5.70;;;;;;;12.26;nan;102207.03;6131931;23;20481;-89
2021/12/31 07:39:01;;;;;;;13.63;6.20;;;;;;;12.22;nan;102216.59;6107140;23;20405;-89
2021/12/31 07:41:29;;;;;;;13.80;7.67;;;;;;;12.18;nan;102213.34;6107419;23;20496;-89
2021/12/31 07:44:01;;;;;;;13.73;6.37;;;;;;;12.15;nan;102224.63;6108024;23;20501;-89
2021/12/31 07:46:29;;;;;;;17.80;6.43;;;;;;;12.14;nan;102220.19;6131221;23;20533;-89
2021/12/31 07:48:57;;;;;;;16.40;6.97;;;;;;;12.13;nan;102215.72;6107420;23;20574;-88
2021/12/31 07:51:25;;;;;;;14.33;6.70;;;;;;;12.13;nan;102223.94;6130822;23;20413;-88
2021/12/31 07:53:53;;;;;;;15.23;7.30;;;;;;;12.09;nan;102223.44;6107829;23;20512;-88
2021/12/31 07:56:21;;;;;;;11.13;6.67;;;;;;;12.07;nan;102216.41;6131294;23;20913;-88
2021/12/31 07:58:49;;;;;;;12.17;6.60;;;;;;;12.06;nan;102217.44;6131138;23;20405;-87
2021/12/31 08:01:17;;;;;;;14.10;7.40;;;;;;;12.08;nan;102227.22;6083510;23;20735;-89
2021/12/31 08:03:45;;;;;;;12.70;7.07;;;;;;;12.01;nan;102215.19;6106775;23;20463;-87
2021/12/31 08:06:14;;;;;;;21.73;11.27;;;;;;;12.09;nan;102223.44;6107133;23;20405;-87
2021/12/31 08:08:43;;;;;;;26.97;13.03;;;;;;;12.13;nan;102234.91;6107149;23;20449;-87
2021/12/31 08:11:11;;;;;;;18.87;10.87;;;;;;;12.10;nan;102235.28;6130844;23;20963;-88
2021/12/31 08:13:45;;;;;;;15.30;8.20;;;;;;;12.08;nan;102234.56;6131628;23;20480;-90
2021/12/31 08:16:13;;;;;;;18.17;8.20;;;;;;;12.10;nan;102241.59;6106684;23;20877;-87
2021/12/31 08:18:47;;;;;;;16.73;7.67;;;;;;;12.13;nan;102239.53;6106661;23;20405;-89
2021/12/31 08:21:16;;;;;;;15.97;7.03;;;;;;;12.15;nan;102249.31;6155205;23;20547;-87
2021/12/31 08:23:44;;;;;;;14.17;7.83;;;;;;;12.19;nan;102250.69;6106380;23;20409;-87
2021/12/31 08:26:12;;;;;;;14.07;8.20;;;;;;;12.22;nan;102244.88;6153630;23;20908;-86
2021/12/31 08:28:42;;;;;;;26.30;10.03;;;;;;;12.28;nan;102255.19;6083174;23;20441;-87
2021/12/31 08:31:11;;;;;;;23.00;9.27;;;;;;;12.30;nan;102253.13;6107248;23;20489;-87
2021/12/31 08:33:42;;;;;;;18.93;9.97;;;;;;;12.37;nan;102247.81;6130952;23;20488;-85
2021/12/31 08:36:10;;;;;;;20.60;10.33;;;;;;;12.36;nan;102249.69;6155437;23;20783;-86
2021/12/31 08:38:39;;;;;;;18.60;9.67;;;;;;;12.47;nan;102258.66;6155631;23;20405;-85
2021/12/31 08:41:07;;;;;;;15.97;6.87;;;;;;;12.50;nan;102263.78;6106904;23;20540;-84
2021/12/31 08:43:57;;;;;;;13.30;7.23;;;;;;;12.65;nan;102270.31;6115143;23;20729;-84
2021/12/31 08:46:25;;;;;;;23.13;10.20;;;;;;;12.62;nan;102252.31;6155750;23;20409;-84
2021/12/31 08:48:53;;;;;;;26.83;13.80;;;;;;;12.78;nan;102265.19;6155439;23;20966;-83
2021/12/31 08:51:20;;;;;;;22.60;11.90;;;;;;;12.86;nan;102267.06;6155184;23;20484;-84
2021/12/31 08:53:50;;;;;;;18.07;9.20;;;;;;;12.93;nan;102265.34;6106982;23;20817;-83
2021/12/31 08:56:20;;;;;;;14.90;7.63;;;;;;;13.05;nan;102273.06;6130843;23;20413;-84
2021/12/31 08:58:48;;;;;;;15.93;7.97;;;;;;;13.16;nan;102265.53;6154866;23;20923;-84
2021/12/31 09:01:17;;;;;;;14.90;6.50;;;;;;;13.13;nan;102267.56;6130027;23;20412;-84
2021/12/31 09:03:45;;;;;;;13.40;6.30;;;;;;;13.26;nan;102260.72;6153945;23;20405;-83
2021/12/31 09:06:13;;;;;;;12.40;6.03;;;;;;;13.44;nan;102280.59;6129393;23;20409;-83
2021/12/31 09:08:41;;;;;;;8.60;5.30;;;;;;;13.61;nan;102286.91;6130282;23;20887;-83
2021/12/31 09:11:10;;;;;;;10.03;5.80;;;;;;;13.67;nan;102286.19;6130329;23;20537;-84
2021/12/31 09:13:38;;;;;;;9.50;5.50;;;;;;;13.80;nan;102298.34;6129834;23;20493;-84
2021/12/31 09:16:05;;;;;;;12.90;5.63;;;;;;;13.94;nan;102294.00;6129890;23;20505;-84
2021/12/31 09:18:33;;;;;;;10.37;5.77;;;;;;;14.06;nan;102298.06;6154120;23;20416;-84
2021/12/31 09:21:02;;;;;;;9.90;5.13;;;;;;;14.15;nan;102293.38;6130809;23;20405;-84
2021/12/31 09:23:32;;;;;;;12.73;5.40;;;;;;;14.19;nan;102283.75;6154264;23;20484;-84
2021/12/31 09:26:01;;;;;;;12.40;5.33;;;;;;;14.34;nan;102294.84;6105556;23;20412;-84
2021/12/31 09:28:29;;;;;;;14.90;6.20;;;;;;;14.46;nan;102298.91;6154059;23;20464;-84
2021/12/31 09:31:03;;;;;;;9.60;5.30;;;;;;;14.57;nan;102306.78;6153419;23;20409;-84
2021/12/31 09:33:31;;;;;;;11.00;5.83;;;;;;;14.67;nan;102314.78;6130160;23;21504;-84
2021/12/31 09:36:02;;;;;;;12.60;6.03;;;;;;;14.74;nan;102313.03;6104858;23;21021;-84
2021/12/31 09:38:31;;;;;;;12.40;6.33;;;;;;;14.84;nan;102319.97;6153535;23;20401;-84
2021/12/31 09:41:00;;;;;;;15.40;6.47;;;;;;;14.88;nan;102314.97;6153830;23;20492;-84
2021/12/31 09:43:30;;;;;;;17.47;7.10;;;;;;;14.98;nan;102321.09;6153913;23;20413;-85
2021/12/31 09:45:58;;;;;;;17.47;7.47;;;;;;;15.03;nan;102324.13;6154045;23;20406;-85
2021/12/31 09:48:26;;;;;;;27.43;7.53;;;;;;;15.07;nan;102319.97;6129663;23;21014;-85
2021/12/31 09:50:55;;;;;;;13.07;6.10;;;;;;;15.16;nan;102327.16;6129529;23;20472;-84
2021/12/31 09:53:24;;;;;;;16.57;6.97;;;;;;;15.19;nan;102324.03;6105403;23;20968;-84
2021/12/31 09:55:55;;;;;;;21.30;7.83;;;;;;;15.27;nan;102333.25;6129641;23;20488;-85
2021/12/31 09:58:24;;;;;;;17.53;7.80;;;;;;;15.35;nan;102334.03;6152923;23;20413;-84
2021/12/31 10:00:57;;;;;;;15.27;7.23;;;;;;;15.43;nan;102330.31;6129750;23;20409;-84
2021/12/31 10:03:28;;;;;;;14.90;7.00;;;;;;;15.50;nan;102336.81;6152197;23;20792;-84
2021/12/31 10:06:06;;;;;;;12.67;6.77;;;;;;;15.61;nan;102347.41;6105226;23;20409;-85
2021/12/31 10:08:46;;;;;;;12.87;6.93;;;;;;;15.72;nan;102338.69;6128932;23;20765;-84
2021/12/31 10:11:19;;;;;;;12.43;6.17;;;;;;;15.76;nan;102337.28;6130113;23;20488;-85
2021/12/31 10:14:00;;;;;;;14.00;6.70;;;;;;;15.89;nan;102337.47;6130199;23;20397;-85
2021/12/31 10:16:52;;;;;;;13.10;6.20;;;;;;;15.99;nan;102344.56;6128883;23;20775;-84
2021/12/31 10:19:21;;;;;;;14.03;6.60;;;;;;;16.07;nan;102338.97;6128317;23;20884;-85
2021/12/31 10:21:51;;;;;;;15.10;6.60;;;;;;;16.11;nan;102337.56;6153366;23;20409;-84
2021/12/31 10:24:20;;;;;;;17.47;6.70;;;;;;;16.26;nan;102349.44;6129207;23;20713;-86
2021/12/31 10:26:50;;;;;;;13.00;7.10;;;;;;;16.36;nan;102343.59;6105471;23;20416;-86
2021/12/31 10:29:18;;;;;;;16.23;7.03;;;;;;;16.43;nan;102344.53;6152663;23;20445;-85
2021/12/31 10:31:48;;;;;;;16.47;6.80;;;;;;;16.48;nan;102336.53;6129145;23;20409;-85
2021/12/31 10:34:29;;;;;;;16.33;8.23;;;;;;;16.55;nan;102342.97;6105575;23;20524;-86
2021/12/31 10:37:01;;;;;;;13.20;6.70;;;;;;;16.62;nan;102332.03;6129268;23;20472;-85
2021/12/31 10:39:37;;;;;;;12.60;6.93;;;;;;;16.75;nan;102343.25;6129279;23;20908;-85
2021/12/31 10:42:09;;;;;;;19.13;5.97;;;;;;;;;;6130870;23;20406;-86
2021/12/31 10:44:47;;;;;;;12.53;6.00;;;;;;;;;;6153487;23;20398;-85
2021/12/31 10:47:35;;;;;;;24.90;6.80;;;;;;;;;;6129365;23;20432;-87
2021/12/31 10:50:03;;;;;;;13.20;6.50;;;;;;;;;;6155422;23;20398;-87
2021/12/31 10:52:40;;;;;;;15.80;6.30;;;;;;;;;;6129291;23;20776;-85
2021/12/31 10:55:18;;;;;;;21.97;6.83;;;;;;;;;;6153710;23;20970;-85
2021/12/31 10:57:47;;;;;;;11.43;6.00;;;;;;;;;;6129439;23;20709;-85
2021/12/31 11:00:15;;;;;;;15.33;6.20;;;;;;;;;;6129480;23;20409;-85
2021/12/31 11:02:42;;;;;;;11.63;5.13;;;;;;;;;;6155515;23;20389;-85
2021/12/31 11:05:11;;;;;;;10.47;5.70;;;;;;;;;;6105744;23;20440;-85
2021/12/31 11:07:39;;;;;;;11.80;5.40;;;;;;;;;;6153740;23;20408;-85
2021/12/31 11:10:27;;;;;;;12.30;6.30;;;;;;;;;;6154841;23;20401;-85
2021/12/31 11:12:55;;;;;;;19.30;6.47;;;;;;;;;;6155410;23;20405;-85
2021/12/31 11:15:23;;;;;;;13.30;5.90;;;;;;;;;;6130259;23;20401;-85
2021/12/31 11:17:52;;;;;;;10.97;5.63;;;;;;;;;;6157263;23;20397;-86
2021/12/31 11:20:21;;;;;;;10.27;5.60;;;;;;;;;;6131201;23;20421;-85
2021/12/31 11:22:49;;;;;;;12.20;4.90;;;;;;;;;;6107311;23;20404;-85
2021/12/31 11:25:37;;;;;;;12.40;5.27;;;;;;;;;;6154363;23;20452;-85
2021/12/31 11:28:05;;;;;;;10.20;4.40;;;;;;;;;;6131361;23;20468;-84
2021/12/31 11:30:37;;;;;;;11.27;4.87;;;;;;;;;;6157202;23;20441;-84
2021/12/31 11:33:09;;;;;;;7.77;4.40;;;;;;;;;;6129867;23;20492;-84
2021/12/31 11:35:44;;;;;;;14.37;5.87;;;;;;;;;;6131430;23;20397;-84
2021/12/31 11:38:21;;;;;;;11.53;5.43;;;;;;;;;;6154062;23;20444;-84
2021/12/31 11:41:09;;;;;;;8.77;5.20;;;;;;;;;;6155427;23;20397;-87
2021/12/31 11:43:43;;;;;;;11.83;5.40;;;;;;;;;;6156182;23;20413;-85
2021/12/31 11:46:22;;;;;;;11.20;4.20;;;;;;;;;;6131012;23;20750;-85
2021/12/31 11:48:52;;;;;;;10.00;4.10;;;;;;;;;;6131114;23;20448;-88
2021/12/31 11:51:33;;;;;;;14.53;5.40;;;;;;;;;;6106467;23;20413;-87
2021/12/31 11:54:01;;;;;;;11.13;5.57;;;;;;;;;;6156413;23;20440;-85
2021/12/31 11:56:45;;;;;;;9.00;4.50;;;;;;;;;;6122808;23;20409;-86
2021/12/31 11:59:13;;;;;;;8.00;4.67;;;;;;;;;;6130963;23;20867;-86
2021/12/31 12:01:53;;;;;;;9.37;4.40;;;;;;;;;;6130771;23;20401;-84
2021/12/31 12:04:26;;;;;;;9.77;3.97;;;;;;;;;;6156513;23;20401;-85
2021/12/31 12:06:55;;;;;;;11.23;4.00;;;;;;;;;;6130651;23;20421;-85
2021/12/31 12:09:23;;;;;;;8.80;4.10;;;;;;;;;;6130511;23;20447;-85